sensor_id;sensor_type;location;lat;lon;timestamp;pressure;altitude;pressure_sealevel;temperature;humidity
62458;BME280;48509;52.122;5.250;2023-02-21T02:14:48;101959.0;;;10.58;100.0
62458;BME280;48509;52.122;5.250;2023-02-21T02:16:32;101959.0;;;10.53;100.0
62458;BME280;48509;52.122;5.250;2023-02-21T02:18:26;101957.0;;;10.62;100.0
62458;BME280;48509;52.122;5.250;2023-02-21T02:22:23;101956.0;;;10.64;100.0
62458;BME280;48509;52.122;5.250;2023-02-21T02:24:54;101958.0;;;10.51;100.0
62458;BME280;48509;52.122;5.250;2023-02-21T02:26:53;101958.0;;;10.52;100.0
62458;BME280;48509;52.122;5.250;2023-02-21T02:31:51;101956.0;;;10.53;100.0
62458;BME280;48509;52.122;5.250;2023-02-21T02:34:54;101957.0;;;10.54;100.0
62458;BME280;48509;52.122;5.250;2023-02-21T02:36:38;101957.0;;;10.67;100.0
62458;BME280;48509;52.122;5.250;2023-02-21T02:38:23;101959.0;;;10.64;100.0
62458;BME280;48509;52.122;5.250;2023-02-21T02:41:56;101957.0;;;10.5;100.0
62458;BME280;48509;52.122;5.250;2023-02-21T02:43:43;101956.0;;;10.6;100.0
62458;BME280;48509;52.122;5.250;2023-02-21T02:45:29;101955.0;;;10.71;100.0
62458;BME280;48509;52.122;5.250;2023-02-21T02:47:17;101955.0;;;10.76;100.0
62458;BME280;48509;52.122;5.250;2023-02-21T02:48:59;101959.0;;;10.69;100.0
62458;BME280;48509;52.122;5.250;2023-02-21T02:52:16;101959.0;;;10.64;100.0
62458;BME280;48509;52.122;5.250;2023-02-21T02:53:52;101960.0;;;10.56;100.0
62458;BME280;48509;52.122;5.250;2023-02-21T02:55:34;101962.0;;;10.43;100.0
62458;BME280;48509;52.122;5.250;2023-02-21T02:57:12;101964.0;;;10.53;100.0
62458;BME280;48509;52.122;5.250;2023-02-21T03:00:33;101959.0;;;10.6;100.0
62458;BME280;48509;52.122;5.250;2023-02-21T03:02:50;101960.0;;;10.64;100.0
62458;BME280;48509;52.122;5.250;2023-02-21T03:04:44;101959.0;;;10.6;100.0
62458;BME280;48509;52.122;5.250;2023-02-21T03:06:46;101963.0;;;10.75;100.0
62458;BME280;48509;52.122;5.250;2023-02-21T03:08:31;101961.0;;;10.83;100.0
62458;BME280;48509;52.122;5.250;2023-02-21T03:10:18;101962.0;;;10.71;100.0
62458;BME280;48509;52.122;5.250;2023-02-21T03:12:07;101962.0;;;10.84;100.0
62458;BME280;48509;52.122;5.250;2023-02-21T03:13:54;101958.0;;;10.77;100.0
62458;BME280;48509;52.122;5.250;2023-02-21T03:17:22;101961.0;;;10.82;100.0
62458;BME280;48509;52.122;5.250;2023-02-21T03:19:04;101958.0;;;10.88;100.0
62458;BME280;48509;52.122;5.250;2023-02-21T03:20:44;101955.0;;;10.96;100.0
62458;BME280;48509;52.122;5.250;2023-02-21T03:22:29;101955.0;;;10.92;100.0
62458;BME280;48509;52.122;5.250;2023-02-21T03:25:47;101953.0;;;10.88;100.0
62458;BME280;48509;52.122;5.250;2023-02-21T03:27:26;101951.0;;;10.95;100.0
62458;BME280;48509;52.122;5.250;2023-02-21T03:29:05;101951.0;;;10.89;100.0
62458;BME280;48509;52.122;5.250;2023-02-21T03:30:43;101953.0;;;10.9;100.0
62458;BME280;48509;52.122;5.250;2023-02-21T03:33:57;101955.0;;;10.87;100.0
62458;BME280;48509;52.122;5.250;2023-02-21T03:35:33;101948.0;;;10.81;100.0
62458;BME280;48509;52.122;5.250;2023-02-21T03:37:18;101951.0;;;10.85;100.0
62458;BME280;48509;52.122;5.250;2023-02-21T03:38:56;101947.0;;;10.74;100.0
62458;BME280;48509;52.122;5.250;2023-02-21T03:42:09;101950.0;;;10.86;100.0
62458;BME280;48509;52.122;5.250;2023-02-21T03:43:45;101946.0;;;10.67;100.0
62458;BME280;48509;52.122;5.250;2023-02-21T03:45:22;101949.0;;;10.65;100.0
62458;BME280;48509;52.122;5.250;2023-02-21T03:48:35;101948.0;;;10.55;100.0
62458;BME280;48509;52.122;5.250;2023-02-21T03:50:11;101944.0;;;10.6;100.0
62458;BME280;48509;52.122;5.250;2023-02-21T03:51:48;101946.0;;;10.61;100.0
62458;BME280;48509;52.122;5.250;2023-02-21T03:55:00;101952.0;;;10.67;100.0
62458;BME280;48509;52.122;5.250;2023-02-21T03:56:37;101949.0;;;10.75;100.0
62458;BME280;48509;52.122;5.250;2023-02-21T03:58:14;101946.0;;;10.75;100.0
62458;BME280;48509;52.122;5.250;2023-02-21T03:59:50;101944.0;;;10.67;100.0
62458;BME280;48509;52.122;5.250;2023-02-21T04:03:03;101940.0;;;10.7;100.0
62458;BME280;48509;52.122;5.250;2023-02-21T04:04:39;101938.0;;;10.76;100.0
62458;BME280;48509;52.122;5.250;2023-02-21T04:06:17;101941.0;;;10.8;100.0
62458;BME280;48509;52.122;5.250;2023-02-21T04:09:29;101933.0;;;10.72;100.0
62458;BME280;48509;52.122;5.250;2023-02-21T04:11:05;101933.0;;;10.7;100.0
62458;BME280;48509;52.122;5.250;2023-02-21T04:12:42;101930.0;;;10.74;100.0
62458;BME280;48509;52.122;5.250;2023-02-21T04:15:54;101934.0;;;10.84;100.0
62458;BME280;48509;52.122;5.250;2023-02-21T04:17:31;101937.0;;;10.79;100.0
62458;BME280;48509;52.122;5.250;2023-02-21T04:19:06;101933.0;;;10.74;100.0
62458;BME280;48509;52.122;5.250;2023-02-21T04:22:22;101936.0;;;10.7;100.0
62458;BME280;48509;52.122;5.250;2023-02-21T04:23:58;101936.0;;;10.69;100.0
62458;BME280;48509;52.122;5.250;2023-02-21T04:25:34;101933.0;;;10.69;100.0
62458;BME280;48509;52.122;5.250;2023-02-21T04:27:12;101939.0;;;10.6;100.0
62458;BME280;48509;52.122;5.250;2023-02-21T04:30:24;101938.0;;;10.73;100.0
62458;BME280;48509;52.122;5.250;2023-02-21T04:32:02;101937.0;;;10.85;100.0
62458;BME280;48509;52.122;5.250;2023-02-21T04:33:38;101934.0;;;10.84;100.0
62458;BME280;48509;52.122;5.250;2023-02-21T04:36:51;101932.0;;;10.71;100.0
62458;BME280;48509;52.122;5.250;2023-02-21T04:38:27;101926.0;;;10.8;100.0
62458;BME280;48509;52.122;5.250;2023-02-21T04:40:04;101930.0;;;10.85;100.0
62458;BME280;48509;52.122;5.250;2023-02-21T04:41:40;101930.0;;;10.71;100.0
62458;BME280;48509;52.122;5.250;2023-02-21T04:44:55;101927.0;;;10.67;100.0
62458;BME280;48509;52.122;5.250;2023-02-21T04:46:32;101923.0;;;10.77;100.0
62458;BME280;48509;52.122;5.250;2023-02-21T04:48:09;101919.0;;;10.74;100.0
62458;BME280;48509;52.122;5.250;2023-02-21T04:51:26;101926.0;;;10.5;100.0
62458;BME280;48509;52.122;5.250;2023-02-21T04:53:02;101922.0;;;10.62;100.0
62458;BME280;48509;52.122;5.250;2023-02-21T04:54:38;101930.0;;;10.71;100.0
62458;BME280;48509;52.122;5.250;2023-02-21T04:57:54;101920.0;;;10.64;100.0
62458;BME280;48509;52.122;5.250;2023-02-21T04:59:30;101925.0;;;10.52;100.0
62458;BME280;48509;52.122;5.250;2023-02-21T05:01:06;101920.0;;;10.6;100.0
62458;BME280;48509;52.122;5.250;2023-02-21T05:02:43;101920.0;;;10.74;100.0
62458;BME280;48509;52.122;5.250;2023-02-21T05:05:56;101923.0;;;10.73;100.0
62458;BME280;48509;52.122;5.250;2023-02-21T05:07:32;101920.0;;;10.6;100.0
62458;BME280;48509;52.122;5.250;2023-02-21T05:09:08;101924.0;;;10.53;100.0
62458;BME280;48509;52.122;5.250;2023-02-21T05:12:21;101920.0;;;10.47;100.0
62458;BME280;48509;52.122;5.250;2023-02-21T05:13:57;101918.0;;;10.47;100.0
62458;BME280;48509;52.122;5.250;2023-02-21T05:15:34;101916.0;;;10.42;100.0
62458;BME280;48509;52.122;5.250;2023-02-21T05:18:47;101920.0;;;10.41;100.0
62458;BME280;48509;52.122;5.250;2023-02-21T05:20:24;101921.0;;;10.41;100.0
62458;BME280;48509;52.122;5.250;2023-02-21T05:22:01;101924.0;;;10.43;100.0
62458;BME280;48509;52.122;5.250;2023-02-21T05:23:39;101925.0;;;10.42;100.0
62458;BME280;48509;52.122;5.250;2023-02-21T05:26:55;101925.0;;;10.5;100.0
62458;BME280;48509;52.122;5.250;2023-02-21T05:28:32;101926.0;;;10.33;100.0
62458;BME280;48509;52.122;5.250;2023-02-21T05:30:10;101931.0;;;10.36;100.0
62458;BME280;48509;52.122;5.250;2023-02-21T05:33:24;101934.0;;;10.43;100.0
62458;BME280;48509;52.122;5.250;2023-02-21T05:35:01;101934.0;;;10.57;100.0
62458;BME280;48509;52.122;5.250;2023-02-21T05:36:38;101932.0;;;10.58;100.0
62458;BME280;48509;52.122;5.250;2023-02-21T05:38:16;101930.0;;;10.55;100.0
62458;BME280;48509;52.122;5.250;2023-02-21T05:41:29;101927.0;;;10.61;100.0
62458;BME280;48509;52.122;5.250;2023-02-21T05:43:06;101930.0;;;10.66;100.0
62458;BME280;48509;52.122;5.250;2023-02-21T05:44:43;101942.0;;;10.61;100.0
62458;BME280;48509;52.122;5.250;2023-02-21T05:48:01;101946.0;;;10.63;100.0
62458;BME280;48509;52.122;5.250;2023-02-21T05:49:38;101949.0;;;10.67;100.0
62458;BME280;48509;52.122;5.250;2023-02-21T05:51:15;101946.0;;;10.62;100.0
62458;BME280;48509;52.122;5.250;2023-02-21T05:52:52;101941.0;;;10.63;100.0
62458;BME280;48509;52.122;5.250;2023-02-21T05:56:04;101934.0;;;10.64;100.0
62458;BME280;48509;52.122;5.250;2023-02-21T05:57:40;101932.0;;;10.66;100.0
62458;BME280;48509;52.122;5.250;2023-02-21T05:59:19;101932.0;;;10.7;100.0
62458;BME280;48509;52.122;5.250;2023-02-21T06:02:33;101942.0;;;10.62;100.0
62458;BME280;48509;52.122;5.250;2023-02-21T06:04:09;101948.0;;;10.69;100.0
62458;BME280;48509;52.122;5.250;2023-02-21T06:05:46;101951.0;;;10.8;100.0
62458;BME280;48509;52.122;5.250;2023-02-21T06:08:58;101950.0;;;10.53;100.0
62458;BME280;48509;52.122;5.250;2023-02-21T06:10:35;101949.0;;;10.7;100.0
62458;BME280;48509;52.122;5.250;2023-02-21T06:12:12;101939.0;;;10.61;100.0
62458;BME280;48509;52.122;5.250;2023-02-21T06:13:49;101941.0;;;10.49;100.0
62458;BME280;48509;52.122;5.250;2023-02-21T06:17:02;101940.0;;;10.47;100.0
62458;BME280;48509;52.122;5.250;2023-02-21T06:18:38;101941.0;;;10.41;100.0
62458;BME280;48509;52.122;5.250;2023-02-21T06:20:16;101944.0;;;10.54;100.0
62458;BME280;48509;52.122;5.250;2023-02-21T06:23:29;101945.0;;;10.48;100.0
62458;BME280;48509;52.122;5.250;2023-02-21T06:25:06;101947.0;;;10.57;100.0
62458;BME280;48509;52.122;5.250;2023-02-21T06:26:44;101946.0;;;10.6;100.0
62458;BME280;48509;52.122;5.250;2023-02-21T06:29:57;101942.0;;;10.57;100.0
62458;BME280;48509;52.122;5.250;2023-02-21T06:31:33;101944.0;;;10.52;100.0
62458;BME280;48509;52.122;5.250;2023-02-21T06:33:09;101945.0;;;10.62;100.0
62458;BME280;48509;52.122;5.250;2023-02-21T06:34:45;101955.0;;;10.71;100.0
62458;BME280;48509;52.122;5.250;2023-02-21T06:38:01;101952.0;;;10.53;100.0
62458;BME280;48509;52.122;5.250;2023-02-21T06:39:38;101949.0;;;10.63;100.0
62458;BME280;48509;52.122;5.250;2023-02-21T06:41:16;101948.0;;;10.64;100.0
62458;BME280;48509;52.122;5.250;2023-02-21T06:44:30;101948.0;;;10.63;100.0
62458;BME280;48509;52.122;5.250;2023-02-21T06:46:06;101953.0;;;10.67;100.0
62458;BME280;48509;52.122;5.250;2023-02-21T06:47:43;101953.0;;;10.68;100.0
62458;BME280;48509;52.122;5.250;2023-02-21T06:49:19;101958.0;;;10.53;100.0
62458;BME280;48509;52.122;5.250;2023-02-21T06:52:32;101959.0;;;10.47;100.0
62458;BME280;48509;52.122;5.250;2023-02-21T06:54:09;101956.0;;;10.57;100.0
62458;BME280;48509;52.122;5.250;2023-02-21T06:55:44;101955.0;;;10.56;100.0
62458;BME280;48509;52.122;5.250;2023-02-21T06:58:57;101956.0;;;10.42;100.0
62458;BME280;48509;52.122;5.250;2023-02-21T07:00:33;101958.0;;;10.56;100.0
62458;BME280;48509;52.122;5.250;2023-02-21T07:02:15;101964.0;;;10.55;100.0
62458;BME280;48509;52.122;5.250;2023-02-21T07:05:33;101963.0;;;10.62;100.0
62458;BME280;48509;52.122;5.250;2023-02-21T07:07:10;101956.0;;;10.6;100.0
62458;BME280;48509;52.122;5.250;2023-02-21T07:08:46;101955.0;;;10.66;100.0
62458;BME280;48509;52.122;5.250;2023-02-21T07:10:22;101955.0;;;10.74;100.0
62458;BME280;48509;52.122;5.250;2023-02-21T07:13:35;101955.0;;;10.66;100.0
62458;BME280;48509;52.122;5.250;2023-02-21T07:15:11;101951.0;;;10.54;100.0
62458;BME280;48509;52.122;5.250;2023-02-21T07:16:48;101950.0;;;10.48;100.0
62458;BME280;48509;52.122;5.250;2023-02-21T07:20:04;101956.0;;;10.54;100.0
62458;BME280;48509;52.122;5.250;2023-02-21T07:21:40;101959.0;;;10.54;100.0
62458;BME280;48509;52.122;5.250;2023-02-21T07:23:16;101959.0;;;10.54;100.0
62458;BME280;48509;52.122;5.250;2023-02-21T07:24:52;101957.0;;;10.56;100.0
62458;BME280;48509;52.122;5.250;2023-02-21T07:28:05;101956.0;;;10.54;100.0
62458;BME280;48509;52.122;5.250;2023-02-21T07:29:42;101958.0;;;10.54;100.0
62458;BME280;48509;52.122;5.250;2023-02-21T07:31:21;101953.0;;;10.63;100.0
62458;BME280;48509;52.122;5.250;2023-02-21T07:34:35;101956.0;;;10.75;100.0
62458;BME280;48509;52.122;5.250;2023-02-21T07:36:11;101955.0;;;10.74;100.0
62458;BME280;48509;52.122;5.250;2023-02-21T07:37:47;101955.0;;;10.87;100.0
62458;BME280;48509;52.122;5.250;2023-02-21T07:41:01;101958.0;;;10.79;100.0
62458;BME280;48509;52.122;5.250;2023-02-21T07:42:42;101958.0;;;10.72;100.0
62458;BME280;48509;52.122;5.250;2023-02-21T07:44:19;101960.0;;;10.71;100.0
62458;BME280;48509;52.122;5.250;2023-02-21T07:45:55;101958.0;;;10.66;100.0
62458;BME280;48509;52.122;5.250;2023-02-21T07:49:08;101961.0;;;10.67;100.0
62458;BME280;48509;52.122;5.250;2023-02-21T07:50:45;101962.0;;;10.53;100.0
62458;BME280;48509;52.122;5.250;2023-02-21T07:52:22;101960.0;;;10.7;100.0
62458;BME280;48509;52.122;5.250;2023-02-21T07:55:34;101965.0;;;10.72;100.0
62458;BME280;48509;52.122;5.250;2023-02-21T07:57:10;101965.0;;;10.71;100.0
62458;BME280;48509;52.122;5.250;2023-02-21T07:58:47;101966.0;;;10.53;100.0
62458;BME280;48509;52.122;5.250;2023-02-21T08:02:02;101967.0;;;10.58;100.0
62458;BME280;48509;52.122;5.250;2023-02-21T08:03:40;101967.0;;;10.74;100.0
62458;BME280;48509;52.122;5.250;2023-02-21T08:05:17;101972.0;;;10.74;100.0
62458;BME280;48509;52.122;5.250;2023-02-21T08:06:58;101970.0;;;10.78;100.0
62458;BME280;48509;52.122;5.250;2023-02-21T08:10:11;101974.0;;;10.73;100.0
62458;BME280;48509;52.122;5.250;2023-02-21T08:11:49;101973.0;;;10.74;100.0
62458;BME280;48509;52.122;5.250;2023-02-21T08:13:25;101977.0;;;10.71;100.0
62458;BME280;48509;52.122;5.250;2023-02-21T08:16:37;101977.0;;;10.77;100.0
62458;BME280;48509;52.122;5.250;2023-02-21T08:18:19;101974.0;;;10.71;100.0
62458;BME280;48509;52.122;5.250;2023-02-21T08:19:57;101972.0;;;10.72;100.0
62458;BME280;48509;52.122;5.250;2023-02-21T08:21:33;101973.0;;;10.7;100.0
62458;BME280;48509;52.122;5.250;2023-02-21T08:24:47;101972.0;;;10.55;100.0
62458;BME280;48509;52.122;5.250;2023-02-21T08:26:24;101972.0;;;10.63;100.0
62458;BME280;48509;52.122;5.250;2023-02-21T08:28:00;101971.0;;;10.71;100.0
62458;BME280;48509;52.122;5.250;2023-02-21T08:31:13;101965.0;;;10.77;100.0
62458;BME280;48509;52.122;5.250;2023-02-21T08:32:50;101966.0;;;10.76;100.0
62458;BME280;48509;52.122;5.250;2023-02-21T08:34:28;101965.0;;;10.74;100.0
62458;BME280;48509;52.122;5.250;2023-02-21T08:36:05;101963.0;;;10.71;100.0
62458;BME280;48509;52.122;5.250;2023-02-21T08:39:21;101964.0;;;10.67;100.0
62458;BME280;48509;52.122;5.250;2023-02-21T08:40:58;101963.0;;;10.73;100.0
62458;BME280;48509;52.122;5.250;2023-02-21T08:42:34;101965.0;;;10.83;100.0
62458;BME280;48509;52.122;5.250;2023-02-21T08:45:49;101962.0;;;10.91;100.0
62458;BME280;48509;52.122;5.250;2023-02-21T08:47:25;101961.0;;;10.92;100.0
62458;BME280;48509;52.122;5.250;2023-02-21T08:49:02;101963.0;;;10.87;100.0
62458;BME280;48509;52.122;5.250;2023-02-21T08:50:39;101960.0;;;10.85;100.0
62458;BME280;48509;52.122;5.250;2023-02-21T08:53:53;101958.0;;;10.7;100.0
62458;BME280;48509;52.122;5.250;2023-02-21T08:55:29;101960.0;;;10.84;100.0
62458;BME280;48509;52.122;5.250;2023-02-21T08:57:06;101961.0;;;10.72;100.0
62458;BME280;48509;52.122;5.250;2023-02-21T09:00:21;101964.0;;;10.84;100.0
62458;BME280;48509;52.122;5.250;2023-02-21T09:01:58;101953.0;;;10.74;100.0
62458;BME280;48509;52.122;5.250;2023-02-21T09:03:35;101956.0;;;10.76;100.0
62458;BME280;48509;52.122;5.250;2023-02-21T09:06:53;101956.0;;;10.81;100.0
62458;BME280;48509;52.122;5.250;2023-02-21T09:08:30;101959.0;;;10.73;100.0
62458;BME280;48509;52.122;5.250;2023-02-21T09:10:08;101953.0;;;10.78;100.0
62458;BME280;48509;52.122;5.250;2023-02-21T09:11:47;101951.0;;;10.75;100.0
62458;BME280;48509;52.122;5.250;2023-02-21T09:15:01;101948.0;;;10.82;100.0
62458;BME280;48509;52.122;5.250;2023-02-21T09:16:38;101944.0;;;10.84;100.0
62458;BME280;48509;52.122;5.250;2023-02-21T09:18:15;101941.0;;;10.81;100.0
62458;BME280;48509;52.122;5.250;2023-02-21T09:21:28;101943.0;;;10.76;100.0
62458;BME280;48509;52.122;5.250;2023-02-21T09:23:04;101943.0;;;10.57;100.0
62458;BME280;48509;52.122;5.250;2023-02-21T09:24:41;101937.0;;;10.68;100.0
62458;BME280;48509;52.122;5.250;2023-02-21T09:26:17;101939.0;;;10.69;100.0
62458;BME280;48509;52.122;5.250;2023-02-21T09:29:31;101939.0;;;10.73;100.0
62458;BME280;48509;52.122;5.250;2023-02-21T09:31:08;101939.0;;;10.68;100.0
62458;BME280;48509;52.122;5.250;2023-02-21T09:32:44;101935.0;;;10.62;100.0
62458;BME280;48509;52.122;5.250;2023-02-21T09:35:59;101934.0;;;10.55;100.0
62458;BME280;48509;52.122;5.250;2023-02-21T09:37:36;101931.0;;;10.68;100.0
62458;BME280;48509;52.122;5.250;2023-02-21T09:39:14;101930.0;;;10.74;100.0
62458;BME280;48509;52.122;5.250;2023-02-21T09:40:55;101926.0;;;10.84;100.0
62458;BME280;48509;52.122;5.250;2023-02-21T09:44:15;101921.0;;;10.85;100.0
62458;BME280;48509;52.122;5.250;2023-02-21T09:45:57;101926.0;;;10.68;100.0
62458;BME280;48509;52.122;5.250;2023-02-21T09:47:37;101922.0;;;10.72;100.0
62458;BME280;48509;52.122;5.250;2023-02-21T09:49:18;101920.0;;;10.76;100.0
62458;BME280;48509;52.122;5.250;2023-02-21T09:52:40;101919.0;;;10.84;100.0
62458;BME280;48509;52.122;5.250;2023-02-21T09:54:22;101921.0;;;10.86;100.0
62458;BME280;48509;52.122;5.250;2023-02-21T09:56:04;101919.0;;;10.84;100.0
62458;BME280;48509;52.122;5.250;2023-02-21T09:57:42;101918.0;;;10.84;100.0
62458;BME280;48509;52.122;5.250;2023-02-21T10:00:55;101921.0;;;10.76;100.0
62458;BME280;48509;52.122;5.250;2023-02-21T10:02:42;101921.0;;;10.87;100.0
62458;BME280;48509;52.122;5.250;2023-02-21T10:04:40;101918.0;;;10.82;100.0
62458;BME280;48509;52.122;5.250;2023-02-21T10:06:33;101911.0;;;10.85;100.0
62458;BME280;48509;52.122;5.250;2023-02-21T10:08:23;101911.0;;;10.87;100.0
62458;BME280;48509;52.122;5.250;2023-02-21T10:11:57;101910.0;;;11.02;100.0
62458;BME280;48509;52.122;5.250;2023-02-21T10:13:41;101911.0;;;11.06;100.0
62458;BME280;48509;52.122;5.250;2023-02-21T10:15:35;101915.0;;;11.16;100.0
62458;BME280;48509;52.122;5.250;2023-02-21T10:17:19;101918.0;;;11.2;100.0
62458;BME280;48509;52.122;5.250;2023-02-21T10:19:03;101913.0;;;11.11;100.0
62458;BME280;48509;52.122;5.250;2023-02-21T10:20:45;101912.0;;;11.04;100.0
62458;BME280;48509;52.122;5.250;2023-02-21T10:24:11;101915.0;;;11.05;100.0
62458;BME280;48509;52.122;5.250;2023-02-21T10:25:51;101916.0;;;11.07;100.0
62458;BME280;48509;52.122;5.250;2023-02-21T10:27:32;101919.0;;;11.07;100.0
62458;BME280;48509;52.122;5.250;2023-02-21T10:29:19;101918.0;;;11.18;100.0
62458;BME280;48509;52.122;5.250;2023-02-21T10:32:36;101916.0;;;10.97;100.0
62458;BME280;48509;52.122;5.250;2023-02-21T10:34:21;101922.0;;;10.86;100.0
62458;BME280;48509;52.122;5.250;2023-02-21T10:35:58;101922.0;;;10.95;100.0
62458;BME280;48509;52.122;5.250;2023-02-21T10:37:38;101927.0;;;11.07;100.0
62458;BME280;48509;52.122;5.250;2023-02-21T10:40:58;101923.0;;;11.01;100.0
62458;BME280;48509;52.122;5.250;2023-02-21T10:42:38;101924.0;;;10.95;100.0
62458;BME280;48509;52.122;5.250;2023-02-21T10:44:27;101923.0;;;10.94;100.0
62458;BME280;48509;52.122;5.250;2023-02-21T10:46:10;101922.0;;;10.97;100.0
62458;BME280;48509;52.122;5.250;2023-02-21T10:47:57;101927.0;;;10.94;100.0
62458;BME280;48509;52.122;5.250;2023-02-21T10:51:28;101927.0;;;11.05;100.0
62458;BME280;48509;52.122;5.250;2023-02-21T10:53:06;101925.0;;;10.97;100.0
62458;BME280;48509;52.122;5.250;2023-02-21T10:54:59;101925.0;;;11.09;100.0
62458;BME280;48509;52.122;5.250;2023-02-21T10:56:37;101922.0;;;11.13;100.0
62458;BME280;48509;52.122;5.250;2023-02-21T10:58:17;101922.0;;;11.16;100.0
62458;BME280;48509;52.122;5.250;2023-02-21T11:02:01;101924.0;;;11.2;100.0
62458;BME280;48509;52.122;5.250;2023-02-21T11:03:42;101923.0;;;10.99;100.0
62458;BME280;48509;52.122;5.250;2023-02-21T11:05:21;101919.0;;;11.11;100.0
62458;BME280;48509;52.122;5.250;2023-02-21T11:07:01;101920.0;;;11.15;100.0
62458;BME280;48509;52.122;5.250;2023-02-21T11:10:28;101919.0;;;11.19;100.0
62458;BME280;48509;52.122;5.250;2023-02-21T11:12:20;101917.0;;;11.22;100.0
62458;BME280;48509;52.122;5.250;2023-02-21T11:14:06;101918.0;;;11.18;100.0
62458;BME280;48509;52.122;5.250;2023-02-21T11:16:08;101914.0;;;11.09;100.0
62458;BME280;48509;52.122;5.250;2023-02-21T11:18:01;101919.0;;;11.24;100.0
62458;BME280;48509;52.122;5.250;2023-02-21T11:19:48;101915.0;;;11.02;100.0
62458;BME280;48509;52.122;5.250;2023-02-21T11:21:26;101914.0;;;10.99;100.0
62458;BME280;48509;52.122;5.250;2023-02-21T11:24:58;101919.0;;;11.21;100.0
62458;BME280;48509;52.122;5.250;2023-02-21T11:26:43;101913.0;;;11.13;100.0
62458;BME280;48509;52.122;5.250;2023-02-21T11:28:22;101912.0;;;11.22;100.0
62458;BME280;48509;52.122;5.250;2023-02-21T11:30:08;101906.0;;;11.29;100.0
62458;BME280;48509;52.122;5.250;2023-02-21T11:31:49;101905.0;;;11.31;100.0
62458;BME280;48509;52.122;5.250;2023-02-21T11:35:06;101909.0;;;11.4;100.0
62458;BME280;48509;52.122;5.250;2023-02-21T11:37:01;101905.0;;;11.34;100.0
62458;BME280;48509;52.122;5.250;2023-02-21T11:38:43;101910.0;;;11.46;100.0
62458;BME280;48509;52.122;5.250;2023-02-21T11:40:29;101906.0;;;11.24;100.0
62458;BME280;48509;52.122;5.250;2023-02-21T11:44:01;101906.0;;;11.1;100.0
62458;BME280;48509;52.122;5.250;2023-02-21T11:46:17;101907.0;;;11.19;100.0
62458;BME280;48509;52.122;5.250;2023-02-21T11:48:00;101908.0;;;11.22;100.0
62458;BME280;48509;52.122;5.250;2023-02-21T11:49:48;101909.0;;;11.17;100.0
62458;BME280;48509;52.122;5.250;2023-02-21T11:51:32;101901.0;;;11.16;100.0
62458;BME280;48509;52.122;5.250;2023-02-21T11:53:17;101902.0;;;11.05;100.0
62458;BME280;48509;52.122;5.250;2023-02-21T11:54:57;101900.0;;;11.04;100.0
62458;BME280;48509;52.122;5.250;2023-02-21T11:58:25;101900.0;;;11.14;100.0
62458;BME280;48509;52.122;5.250;2023-02-21T12:00:14;101902.0;;;11.07;100.0
62458;BME280;48509;52.122;5.250;2023-02-21T12:02:18;101902.0;;;10.96;100.0
62458;BME280;48509;52.122;5.250;2023-02-21T12:04:26;101898.0;;;11.03;100.0
62458;BME280;48509;52.122;5.250;2023-02-21T12:06:15;101896.0;;;11.15;100.0
62458;BME280;48509;52.122;5.250;2023-02-21T12:08:23;101894.0;;;11.16;100.0
62458;BME280;48509;52.122;5.250;2023-02-21T12:10:14;101894.0;;;11.15;100.0
62458;BME280;48509;52.122;5.250;2023-02-21T12:12:14;101891.0;;;11.25;100.0
62458;BME280;48509;52.122;5.250;2023-02-21T12:14:10;101890.0;;;11.2;100.0
62458;BME280;48509;52.122;5.250;2023-02-21T12:16:01;101889.0;;;11.16;100.0
62458;BME280;48509;52.122;5.250;2023-02-21T12:17:56;101890.0;;;11.11;100.0
62458;BME280;48509;52.122;5.250;2023-02-21T12:23:18;101891.0;;;11.15;100.0
62458;BME280;48509;52.122;5.250;2023-02-21T12:25:10;101887.0;;;11.06;100.0
62458;BME280;48509;52.122;5.250;2023-02-21T12:26:56;101890.0;;;11.01;100.0
62458;BME280;48509;52.122;5.250;2023-02-21T12:28:49;101881.0;;;11.03;100.0
62458;BME280;48509;52.122;5.250;2023-02-21T12:30:50;101882.0;;;11.04;100.0
62458;BME280;48509;52.122;5.250;2023-02-21T12:32:48;101878.0;;;11.13;100.0
62458;BME280;48509;52.122;5.250;2023-02-21T12:34:46;101873.0;;;11.23;100.0
62458;BME280;48509;52.122;5.250;2023-02-21T12:37:04;101875.0;;;11.2;100.0
62458;BME280;48509;52.122;5.250;2023-02-21T12:39:39;101876.0;;;11.24;100.0
62458;BME280;48509;52.122;5.250;2023-02-21T12:42:56;101874.0;;;11.12;100.0
62458;BME280;48509;52.122;5.250;2023-02-21T12:44:42;101875.0;;;11.36;100.0
62458;BME280;48509;52.122;5.250;2023-02-21T12:46:35;101865.0;;;11.24;100.0
62458;BME280;48509;52.122;5.250;2023-02-21T12:48:18;101870.0;;;11.2;100.0
62458;BME280;48509;52.122;5.250;2023-02-21T12:50:06;101864.0;;;11.34;100.0
62458;BME280;48509;52.122;5.250;2023-02-21T12:51:55;101865.0;;;11.27;100.0
62458;BME280;48509;52.122;5.250;2023-02-21T12:53:36;101861.0;;;11.24;100.0
62458;BME280;48509;52.122;5.250;2023-02-21T12:55:25;101864.0;;;11.22;100.0
62458;BME280;48509;52.122;5.250;2023-02-21T12:58:48;101862.0;;;11.23;100.0
62458;BME280;48509;52.122;5.250;2023-02-21T13:00:31;101858.0;;;11.18;100.0
62458;BME280;48509;52.122;5.250;2023-02-21T13:02:20;101855.0;;;11.19;100.0
62458;BME280;48509;52.122;5.250;2023-02-21T13:04:10;101849.0;;;11.3;100.0
62458;BME280;48509;52.122;5.250;2023-02-21T13:05:53;101851.0;;;11.35;100.0
62458;BME280;48509;52.122;5.250;2023-02-21T13:09:24;101849.0;;;11.43;100.0
62458;BME280;48509;52.122;5.250;2023-02-21T13:11:08;101851.0;;;11.35;100.0
62458;BME280;48509;52.122;5.250;2023-02-21T13:12:55;101851.0;;;11.27;100.0
62458;BME280;48509;52.122;5.250;2023-02-21T13:14:38;101851.0;;;11.38;100.0
62458;BME280;48509;52.122;5.250;2023-02-21T13:16:18;101850.0;;;11.35;100.0
62458;BME280;48509;52.122;5.250;2023-02-21T13:19:41;101847.0;;;11.38;100.0
62458;BME280;48509;52.122;5.250;2023-02-21T13:21:31;101848.0;;;11.39;100.0
62458;BME280;48509;52.122;5.250;2023-02-21T13:24:42;101846.0;;;11.23;100.0
62458;BME280;48509;52.122;5.250;2023-02-21T13:26:37;101845.0;;;11.12;100.0
62458;BME280;48509;52.122;5.250;2023-02-21T13:29:22;101841.0;;;11.19;100.0